ENMH

Mehamn Airport

Mehamn, Norway
METAR ENMH 252150Z 25026G39KT 9999 FEW020 SCT070 08/03 Q1016
Observed Flight Rules
May-25 @ 21:50 UTC (7 hours ago) Visual Flight Rules
Wind Visibility Clouds
250° at 26 knots
 Gusting to 39 knots
10,000+ meters
  • Few at 2,000' AGL
  • Scattered at 7,000' AGL
Temperatures Readings
Current 8°C / 46°F
Dewpoint 3°C / 37°F
Humidity 71%
Altimeter 30" Hg
Pressure 1016 hPa
Elevation 13
METAR ENMH 252150Z 25026G39KT 9999 FEW020 SCT070 08/03 Q1016
Observed Flight Rules
May-25 @ 21:50 UTC
(7 hours ago)
VFR
Wind Visibility
250° at 26 knots
 Gusting to 39 knots
10,000+ meters
Clouds
  • Few at 2,000' AGL
  • Scattered at 7,000' AGL
Temperature Dewpoint
8°C / 46°F 3°C / 37°F
Humidity Altimeter Pressure
71% 30" Hg 1016 hPa